Time;durP1;ratioP1;P1;durP2;ratioP2;P2;SDS_P1;SDS_P2;PMS_P1;PMS_P2;Temp;Humidity;BMP_temperature;BMP_pressure;BME280_temperature;BME280_humidity;BME280_pressure;Samples;Min_cycle;Max_cycle;Signal;HPM_P1;HPM_P2
2022/12/15 00:40:45;;;;;;;42.15;23.70;;;;;;;-2.10;71.57;101610.10;1833456;75;21402;-88
2022/12/15 00:43:12;;;;;;;61.50;31.87;;;;;;;-2.15;71.42;101598.94;1833490;75;20978;-87
2022/12/15 00:48:24;;;;;;;46.58;27.42;;;;;;;-2.15;71.78;101602.79;1832305;78;21356;-86
2022/12/15 00:50:51;;;;;;;41.90;22.37;;;;;;;-2.12;71.34;101610.08;1831999;78;20970;-87
2022/12/15 01:21:00;;;;;;;38.70;16.55;;;;;;;-1.82;70.81;101580.73;1830954;77;21345;-88
2022/12/15 01:23:27;;;;;;;28.00;16.37;;;;;;;-1.81;69.39;101570.47;1830911;78;21010;-88
2022/12/15 01:25:54;;;;;;;25.05;14.60;;;;;;;-1.76;68.72;101566.64;1830769;78;21783;-87
2022/12/15 01:28:22;;;;;;;24.80;15.20;;;;;;;-1.72;67.67;101569.23;1830687;77;20915;-87
2022/12/15 01:30:51;;;;;;;26.57;14.98;;;;;;;-1.69;67.50;101573.53;1830824;78;20943;-87
2022/12/15 01:33:17;;;;;;;20.08;13.10;;;;;;;-1.67;67.16;101567.97;1830834;78;21298;-87
2022/12/15 01:35:44;;;;;;;20.25;14.78;;;;;;;-1.65;66.63;101570.13;1830884;78;20958;-89
2022/12/15 01:38:11;;;;;;;20.75;13.25;;;;;;;-1.62;66.35;101563.73;1830789;78;21122;-87
2022/12/15 01:40:48;;;;;;;17.85;10.70;;;;;;;-1.55;66.10;101565.91;1831135;78;21431;-88
2022/12/15 01:43:24;;;;;;;16.48;11.28;;;;;;;-1.51;65.24;101568.94;1830904;78;20959;-88
2022/12/15 01:46:09;;;;;;;12.70;8.93;;;;;;;-1.45;64.66;101565.09;1830645;78;20856;-88
2022/12/15 01:48:46;;;;;;;14.73;9.90;;;;;;;-1.43;64.14;101557.39;1830440;78;21462;-87
2022/12/15 01:51:38;;;;;;;15.98;9.58;;;;;;;-1.41;64.02;101565.97;1830789;78;21339;-87
2022/12/15 01:54:12;;;;;;;17.17;10.00;;;;;;;-1.40;63.87;101563.42;1831242;77;21010;-85
2022/12/15 01:56:44;;;;;;;19.85;10.00;;;;;;;-1.33;63.66;101565.59;1832005;77;21347;-85
2022/12/15 01:59:13;;;;;;;15.08;9.65;;;;;;;-1.29;63.38;101552.75;1832125;78;20915;-87
2022/12/15 02:01:41;;;;;;;15.53;9.55;;;;;;;-1.26;63.21;101555.75;1833662;78;20840;-87
2022/12/15 02:04:09;;;;;;;12.50;8.90;;;;;;;-1.21;63.23;101548.05;1833572;78;21420;-88
2022/12/15 02:06:36;;;;;;;14.18;8.85;;;;;;;-1.22;62.80;101556.20;1833298;78;20911;-87
2022/12/15 02:09:05;;;;;;;14.13;8.63;;;;;;;-1.19;63.07;101560.06;1833103;78;20911;-88
2022/12/15 02:11:56;;;;;;;12.30;8.50;;;;;;;-1.13;62.18;101566.95;1833290;78;20903;-88
2022/12/15 02:14:46;;;;;;;16.25;8.05;;;;;;;-1.12;61.64;101553.22;1830192;76;20828;-87
2022/12/15 02:17:38;;;;;;;11.53;7.17;;;;;;;-1.09;61.29;101539.06;1835908;75;21116;-86
2022/12/15 02:20:36;;;;;;;12.68;8.33;;;;;;;-1.11;60.89;101533.93;1836117;75;20934;-88
2022/12/15 02:23:47;;;;;;;13.78;7.40;;;;;;;-1.09;61.10;101538.66;1835937;75;20863;-88
2022/12/15 02:26:54;;;;;;;11.45;7.97;;;;;;;-1.07;60.36;101526.66;1835950;76;21005;-88
2022/12/15 02:29:59;;;;;;;12.95;7.60;;;;;;;-1.06;60.10;101541.66;1836203;75;20946;-89
2022/12/15 02:32:31;;;;;;;10.03;7.10;;;;;;;-1.06;60.14;101533.51;1770928;78;21382;-88
2022/12/15 02:35:12;;;;;;;12.65;7.87;;;;;;;-1.02;59.98;101528.35;1769243;78;21015;-89
2022/12/15 02:37:38;;;;;;;10.18;7.53;;;;;;;-0.99;59.86;101538.24;1770821;78;20931;-88
2022/12/15 02:40:08;;;;;;;10.93;7.08;;;;;;;-0.97;60.15;101530.09;1770856;78;21005;-88
2022/12/15 02:42:40;;;;;;;12.18;7.83;;;;;;;-0.90;60.23;101528.39;1770500;78;21278;-87
2022/12/15 02:45:20;;;;;;;11.55;7.03;;;;;;;-0.87;59.71;101520.66;1770508;78;21195;-90
2022/12/15 02:48:16;;;;;;;10.10;6.53;;;;;;;-0.84;59.44;101525.84;1770380;78;20902;-88
2022/12/15 02:51:13;;;;;;;10.90;6.95;;;;;;;-0.90;59.15;101507.36;1770595;78;20922;-89
2022/12/15 02:54:14;;;;;;;11.18;6.83;;;;;;;-0.89;59.08;101503.95;1770807;78;21122;-87
2022/12/15 02:56:58;;;;;;;11.60;8.15;;;;;;;-0.89;59.30;101503.95;1769000;81;20974;-88
2022/12/15 02:59:54;;;;;;;14.60;9.03;;;;;;;-0.87;59.30;101499.66;1768863;79;21895;-90
2022/12/15 03:02:15;;;;;;;10.10;7.30;;;;;;;-0.82;59.41;101489.77;1767551;81;21016;-88
2022/12/15 03:04:42;;;;;;;11.15;6.42;;;;;;;-0.82;59.25;101482.93;1768921;81;20953;-88
2022/12/15 03:07:09;;;;;;;10.10;7.83;;;;;;;-0.82;58.75;101476.89;1768487;81;20898;-88
2022/12/15 03:09:36;;;;;;;10.58;7.70;;;;;;;-0.88;59.00;101469.61;1809724;77;20986;-89
2022/12/15 03:12:06;;;;;;;11.43;7.33;;;;;;;-0.85;59.21;101483.76;1833565;77;21224;-88
2022/12/15 03:14:34;;;;;;;8.78;6.83;;;;;;;-0.82;58.93;101473.92;1832603;77;21329;-87
2022/12/15 03:17:00;;;;;;;8.83;7.53;;;;;;;-0.82;58.34;101468.77;1830952;78;20875;-88
2022/12/15 03:19:27;;;;;;;9.20;7.05;;;;;;;-0.84;58.24;101471.77;1830822;78;20947;-89
2022/12/15 03:21:54;;;;;;;9.35;6.78;;;;;;;-0.87;58.06;101473.91;1803635;78;21562;-89
2022/12/15 03:24:21;;;;;;;9.35;6.47;;;;;;;-0.85;57.94;101460.58;1804065;78;21252;-87
2022/12/15 03:26:48;;;;;;;8.50;6.75;;;;;;;-0.81;57.95;101470.91;1831712;78;20938;-88
2022/12/15 03:29:17;;;;;;;9.65;6.83;;;;;;;-0.77;58.11;101465.75;1831636;78;20907;-90
2022/12/15 03:31:44;;;;;;;10.38;7.55;;;;;;;-0.73;58.02;101470.49;1831557;78;20887;-89
2022/12/15 03:34:12;;;;;;;9.25;6.95;;;;;;;-0.75;57.74;101465.33;1831654;78;21332;-89
2022/12/15 03:36:38;;;;;;;11.33;6.35;;;;;;;-0.70;58.03;101458.45;1830897;77;21468;-89
2022/12/15 03:39:05;;;;;;;9.93;6.85;;;;;;;-0.64;57.83;101460.19;1830900;78;20973;-89
2022/12/15 03:41:32;;;;;;;10.30;5.87;;;;;;;-0.62;57.56;101450.74;1830980;78;20864;-91
2022/12/15 03:43:59;;;;;;;9.20;6.70;;;;;;;-0.61;57.15;101452.44;1830699;78;20868;-91
2022/12/15 03:46:25;;;;;;;9.58;6.90;;;;;;;-0.57;57.01;101448.16;1831010;78;20987;-89
2022/12/15 03:48:53;;;;;;;8.38;5.83;;;;;;;-0.57;57.07;101442.57;1830808;78;21160;-88
2022/12/15 03:51:20;;;;;;;7.65;5.92;;;;;;;-0.57;56.74;101434.84;1830536;78;20957;-89
2022/12/15 03:53:48;;;;;;;10.20;6.50;;;;;;;-0.59;57.14;101435.27;1830655;78;20951;-89
2022/12/15 03:56:15;;;;;;;8.13;6.10;;;;;;;-0.58;57.27;101438.26;1803646;78;21025;-88
2022/12/15 03:58:42;;;;;;;9.53;6.67;;;;;;;-0.59;57.41;101428.83;1830786;78;20915;-88
2022/12/15 04:01:21;;;;;;;9.45;5.95;;;;;;;-0.59;57.27;101427.98;1831138;78;21852;-88
2022/12/15 04:03:48;;;;;;;8.03;5.50;;;;;;;-0.59;57.43;101421.54;1831689;77;20994;-87
2022/12/15 04:06:14;;;;;;;10.70;7.25;;;;;;;-0.59;58.02;101425.41;1831790;78;20911;-89
2022/12/15 04:08:41;;;;;;;11.70;6.70;;;;;;;-0.64;58.16;101422.40;1831564;78;20911;-88
2022/12/15 04:11:08;;;;;;;9.88;7.20;;;;;;;-0.67;58.58;101412.52;1831743;78;20919;-86
2022/12/15 04:13:35;;;;;;;8.00;6.03;;;;;;;-0.67;58.75;101423.70;1830994;77;21456;-89
2022/12/15 04:16:02;;;;;;;9.38;7.00;;;;;;;-0.73;59.18;101424.13;1818488;79;20860;-88
2022/12/15 04:18:29;;;;;;;10.78;7.58;;;;;;;-0.78;59.73;101433.13;1818224;78;20876;-89
2022/12/15 04:20:55;;;;;;;10.15;7.80;;;;;;;-0.79;60.09;101428.84;1818477;78;20955;-88
2022/12/15 04:23:22;;;;;;;9.53;7.28;;;;;;;-0.81;60.57;101432.28;1819508;76;20920;-87
2022/12/15 05:32:23;;;;;;;16.30;11.33;;;;;;;-0.64;64.90;101449.44;1833135;77;20899;-87
2022/12/15 05:34:49;;;;;;;12.68;9.15;;;;;;;-0.59;64.97;101452.02;1833390;78;21121;-87
2022/12/15 05:37:17;;;;;;;12.73;8.78;;;;;;;-0.54;64.99;101455.44;1833149;78;20987;-88
2022/12/15 05:39:44;;;;;;;11.68;8.25;;;;;;;-0.51;65.01;101444.27;1833239;78;20914;-89
2022/12/15 05:42:10;;;;;;;12.28;8.35;;;;;;;-0.50;65.01;101448.14;1833216;78;20899;-88
2022/12/15 05:44:38;;;;;;;11.55;7.83;;;;;;;-0.51;65.04;101452.88;1833219;78;21463;-86
2022/12/15 05:47:05;;;;;;;13.40;9.50;;;;;;;-0.52;65.23;101446.42;1833656;77;21147;-87
2022/12/15 05:49:32;;;;;;;12.73;9.18;;;;;;;-0.49;65.48;101454.14;1833405;78;20868;-87
2022/12/15 05:51:58;;;;;;;15.98;9.50;;;;;;;-0.49;65.41;101464.45;1833436;78;20895;-88
2022/12/15 05:54:25;;;;;;;19.62;11.00;;;;;;;-0.49;65.52;101460.18;1833539;78;22349;-88
2022/12/15 05:56:52;;;;;;;17.02;10.08;;;;;;;-0.49;65.66;101461.47;1833700;78;20871;-88
2022/12/15 05:59:18;;;;;;;16.67;10.85;;;;;;;-0.43;65.78;101463.16;1833910;78;21203;-87
2022/12/15 06:01:45;;;;;;;15.00;11.10;;;;;;;-0.36;66.01;101460.15;1834089;77;21046;-88
2022/12/15 06:04:12;;;;;;;15.72;10.43;;;;;;;-0.26;65.93;101459.28;1833784;78;20844;-87
2022/12/15 06:06:39;;;;;;;20.65;10.43;;;;;;;-0.22;65.71;101462.29;1833850;78;21439;-86
2022/12/15 06:09:06;;;;;;;15.48;9.88;;;;;;;-0.19;65.58;101455.83;1833921;78;21049;-86
2022/12/15 06:11:32;;;;;;;16.75;10.78;;;;;;;-0.19;65.51;101468.72;1834055;78;21098;-87
2022/12/15 06:13:59;;;;;;;16.05;10.32;;;;;;;-0.25;65.61;101454.10;1833874;77;20950;-88
2022/12/15 06:16:29;;;;;;;17.07;10.65;;;;;;;-0.25;66.09;101460.55;1819709;78;20982;-88
2022/12/15 06:18:59;;;;;;;19.60;10.50;;;;;;;-0.22;66.06;101450.69;1819011;79;20943;-88
2022/12/15 06:21:36;;;;;;;15.55;10.48;;;;;;;-0.22;66.04;101454.13;1818981;78;20916;-89
2022/12/15 06:24:04;;;;;;;14.95;10.50;;;;;;;-0.25;66.13;101445.09;1788371;79;21377;-87
2022/12/15 06:26:34;;;;;;;18.15;11.68;;;;;;;-0.31;66.35;101443.83;1819214;78;20864;-87
2022/12/15 06:29:05;;;;;;;15.00;9.73;;;;;;;-0.33;66.50;101453.28;1819152;77;20963;-89
2022/12/15 06:31:31;;;;;;;17.85;10.28;;;;;;;-0.33;66.86;101443.41;1819262;79;20934;-86
2022/12/15 06:33:58;;;;;;;15.38;10.60;;;;;;;-0.33;66.93;101439.11;1818903;77;20947;-86
2022/12/15 06:36:24;;;;;;;14.90;10.95;;;;;;;-0.32;67.00;101451.55;1818897;79;21121;-88
2022/12/15 06:38:52;;;;;;;16.60;11.05;;;;;;;-0.31;67.20;101441.25;1818611;78;20848;-87
2022/12/15 06:41:22;;;;;;;16.42;11.40;;;;;;;-0.30;67.31;101430.07;1818816;78;20939;-89
2022/12/15 06:43:51;;;;;;;18.12;12.23;;;;;;;-0.23;67.41;101437.36;1817790;79;21440;-87
2022/12/15 06:46:17;;;;;;;15.75;11.75;;;;;;;-0.16;67.39;101442.07;1818906;79;20931;-89
2022/12/15 06:48:45;;;;;;;15.40;10.35;;;;;;;-0.12;67.55;101437.34;1818833;79;21233;-88
2022/12/15 06:51:13;;;;;;;18.73;11.25;;;;;;;-0.04;67.41;101433.87;1818983;77;20923;-87
2022/12/15 06:53:40;;;;;;;13.95;10.40;;;;;;;-0.01;67.25;101430.42;1818810;77;20879;-89
2022/12/15 06:56:11;;;;;;;18.12;10.63;;;;;;;-0.01;67.09;101437.72;1818637;79;20924;-91
2022/12/15 06:58:38;;;;;;;17.12;11.53;;;;;;;-0.01;67.32;101436.87;1817645;79;20920;-88
2022/12/15 07:01:06;;;;;;;17.45;11.28;;;;;;;0.00;67.30;101428.30;1818264;77;21140;-87
2022/12/15 07:03:34;;;;;;;21.30;12.07;;;;;;;0.00;67.43;101425.72;1818760;79;20907;-90
2022/12/15 07:06:03;;;;;;;20.00;11.63;;;;;;;0.01;67.60;101422.26;1819146;78;20836;-90
2022/12/15 07:08:31;;;;;;;14.05;10.55;;;;;;;0.08;67.70;101402.47;1819476;78;20872;-88
2022/12/15 11:59:39;;;;;;;20.55;13.62;;;;;;;2.54;66.71;101071.46;1724385;82;20964;-87
2022/12/15 12:02:45;;;;;;;21.23;13.45;;;;;;;2.59;66.68;101067.87;1719847;82;21190;-88
2022/12/15 12:06:10;;;;;;;23.85;15.28;;;;;;;2.62;66.25;101076.91;1694374;84;21420;-88
2022/12/15 12:08:51;;;;;;;25.95;15.28;;;;;;;2.61;66.51;101104.95;1722940;82;21494;-87
2022/12/15 12:11:35;;;;;;;22.52;12.82;;;;;;;2.67;66.50;101093.19;1728394;82;20944;-88
2022/12/15 12:14:22;;;;;;;18.15;12.30;;;;;;;2.67;66.32;101085.42;1641966;86;21502;-87
2022/12/15 12:17:06;;;;;;;19.50;12.73;;;;;;;2.66;66.14;101097.94;1636134;85;20978;-87
2022/12/15 12:19:41;;;;;;;17.75;11.83;;;;;;;2.68;66.10;101098.77;1642788;86;21030;-86
2022/12/15 12:22:16;;;;;;;19.62;12.15;;;;;;;2.72;66.52;101100.02;1672805;84;21335;-88
2022/12/15 12:24:47;;;;;;;20.32;14.35;;;;;;;2.73;66.26;101082.29;1645341;86;20989;-86
2022/12/15 12:27:34;;;;;;;22.25;13.78;;;;;;;2.70;65.97;101089.69;1640864;86;21172;-87
2022/12/15 12:30:14;;;;;;;21.97;13.83;;;;;;;2.62;65.82;101091.14;1673312;85;21575;-87
2022/12/15 12:33:05;;;;;;;21.90;14.23;;;;;;;2.60;65.93;101083.84;1643703;86;20998;-86
2022/12/15 12:35:46;;;;;;;21.52;13.58;;;;;;;2.58;66.09;101096.38;1656769;84;21155;-87
2022/12/15 12:38:13;;;;;;;18.75;13.68;;;;;;;2.62;66.01;101110.98;1656529;85;21083;-86
2022/12/15 12:41:05;;;;;;;25.95;14.68;;;;;;;2.63;65.90;101116.59;1653789;85;21002;-86
2022/12/15 12:43:37;;;;;;;25.48;15.65;;;;;;;2.61;65.75;101090.71;1666432;85;20948;-86
2022/12/15 12:46:21;;;;;;;25.23;16.70;;;;;;;2.55;65.82;101088.69;1644064;86;21013;-87
2022/12/15 12:48:59;;;;;;;23.30;14.78;;;;;;;2.54;65.81;101096.90;1613983;85;21883;-86
2022/12/15 12:51:29;;;;;;;26.80;14.03;;;;;;;2.54;65.71;101093.02;1679697;83;20971;-87
2022/12/15 12:53:58;;;;;;;23.83;15.18;;;;;;;2.52;65.87;101101.70;1701093;83;20871;-86
2022/12/15 12:56:41;;;;;;;25.02;15.25;;;;;;;2.47;65.91;101094.87;1700946;83;21117;-88
2022/12/15 12:59:32;;;;;;;20.52;13.62;;;;;;;2.43;66.19;101091.08;1694999;83;20912;-87
2022/12/15 13:02:25;;;;;;;23.32;13.48;;;;;;;2.44;66.46;101098.78;1711378;83;21148;-86
2022/12/15 13:05:03;;;;;;;24.27;15.68;;;;;;;2.43;66.28;101080.27;1729081;82;20905;-85
2022/12/15 13:07:37;;;;;;;23.30;16.23;;;;;;;2.40;66.41;101084.64;1725318;82;20986;-86
2022/12/15 13:10:18;;;;;;;27.13;16.62;;;;;;;2.36;66.60;101073.52;1689190;82;20971;-86
2022/12/15 13:12:57;;;;;;;24.37;18.30;;;;;;;2.37;66.63;101076.50;1719477;82;20957;-85
2022/12/15 13:15:37;;;;;;;27.35;15.45;;;;;;;2.34;66.78;101066.66;1723983;82;21260;-85
2022/12/15 13:18:20;;;;;;;22.58;15.88;;;;;;;2.34;67.04;101067.95;1725982;81;20924;-87
2022/12/15 13:20:48;;;;;;;23.50;16.25;;;;;;;2.27;67.07;101062.05;1728406;82;21024;-87
2022/12/15 13:23:26;;;;;;;17.92;13.40;;;;;;;2.19;67.38;101056.14;1721860;82;20963;-86
2022/12/15 13:26:02;;;;;;;17.40;12.53;;;;;;;2.11;67.71;101046.37;1726362;82;21124;-87
2022/12/15 13:28:45;;;;;;;19.25;12.90;;;;;;;2.12;67.89;101043.77;1722431;81;21260;-86
2022/12/15 13:31:23;;;;;;;26.65;14.78;;;;;;;2.12;68.10;101048.09;1703095;84;21878;-86
2022/12/15 13:34:10;;;;;;;25.23;16.50;;;;;;;2.15;68.15;101050.16;1698575;83;21377;-86
2022/12/15 13:36:43;;;;;;;27.73;17.48;;;;;;;2.17;68.10;101049.70;1700648;84;20905;-88
2022/12/15 13:39:30;;;;;;;30.02;18.48;;;;;;;2.20;68.25;101050.95;1703279;84;20936;-86
2022/12/15 13:42:08;;;;;;;32.58;20.72;;;;;;;2.23;68.27;101048.75;1692247;84;21300;-86
2022/12/15 13:44:40;;;;;;;28.55;19.57;;;;;;;2.22;68.22;101044.44;1703330;83;20945;-86
2022/12/15 13:47:13;;;;;;;43.78;22.27;;;;;;;2.18;68.40;101044.08;1706685;83;20929;-86
2022/12/15 13:49:55;;;;;;;29.72;19.95;;;;;;;2.15;68.46;101035.09;1684972;83;20884;-87
2022/12/15 13:52:41;;;;;;;35.30;24.37;;;;;;;2.08;68.68;101037.78;1686860;83;21435;-84
2022/12/15 13:55:23;;;;;;;30.60;20.27;;;;;;;2.07;68.83;101033.50;1679149;84;21144;-86
2022/12/15 13:57:59;;;;;;;36.17;23.27;;;;;;;2.09;69.14;101032.19;1695071;84;21055;-87
2022/12/15 14:00:29;;;;;;;43.40;24.40;;;;;;;2.15;69.43;101020.86;1722287;82;21451;-88
2022/12/15 14:03:11;;;;;;;46.95;27.52;;;;;;;2.15;69.42;101020.41;1725743;82;20917;-87
2022/12/15 14:05:40;;;;;;;42.78;25.32;;;;;;;2.16;69.36;101019.99;1729382;82;21037;-88
2022/12/15 14:08:12;;;;;;;44.27;27.50;;;;;;;2.12;69.54;101015.30;1683646;84;20999;-88
2022/12/15 14:10:50;;;;;;;43.28;24.50;;;;;;;2.11;69.75;101010.16;1634668;86;20922;-87
2022/12/15 14:13:24;;;;;;;41.80;24.67;;;;;;;2.11;70.15;101003.69;1681523;85;21009;-87
2022/12/15 14:16:05;;;;;;;41.80;23.73;;;;;;;2.16;70.27;101009.20;1684235;84;21479;-88
2022/12/15 14:18:35;;;;;;;33.92;20.70;;;;;;;2.18;70.38;101005.27;1679569;84;21028;-89
2022/12/15 14:21:20;;;;;;;36.30;21.52;;;;;;;2.21;70.54;100999.60;1682383;84;21180;-86
2022/12/15 14:23:47;;;;;;;31.87;19.90;;;;;;;2.25;70.74;101003.00;1680968;84;21056;-88
2022/12/15 14:26:16;;;;;;;33.15;21.30;;;;;;;2.26;71.00;101010.70;1658908;84;21494;-87
2022/12/15 14:28:45;;;;;;;32.33;20.68;;;;;;;2.31;71.64;101025.30;1682899;84;21422;-89
2022/12/15 14:31:23;;;;;;;32.05;21.15;;;;;;;2.38;72.17;101030.76;1683038;84;21578;-88
2022/12/15 14:34:09;;;;;;;33.58;21.87;;;;;;;2.45;72.43;101025.89;1682785;84;21261;-87
2022/12/15 14:36:36;;;;;;;35.00;21.50;;;;;;;2.50;72.62;101027.95;1685231;84;20890;-88
2022/12/15 14:39:06;;;;;;;33.08;23.00;;;;;;;2.57;72.86;101027.37;1689925;84;21134;-88
2022/12/15 14:41:37;;;;;;;41.92;23.77;;;;;;;2.66;73.09;101028.03;1691760;83;21043;-88
2022/12/15 14:44:17;;;;;;;35.68;23.62;;;;;;;2.76;73.13;101036.48;1702309;83;20988;-88
2022/12/15 14:46:45;;;;;;;32.25;22.10;;;;;;;2.82;73.04;101031.14;1700798;83;21871;-88
2022/12/15 14:49:30;;;;;;;33.35;22.42;;;;;;;2.86;72.92;101037.97;1699609;83;21499;-88
2022/12/15 14:52:01;;;;;;;;;;;;;;;2.86;72.79;101031.95;1690589;83;20872;-86
2022/12/15 14:54:37;;;;;;;33.02;23.02;;;;;;;2.83;72.69;101037.20;1709964;83;20121;-88
2022/12/15 14:57:17;;;;;;;34.75;22.37;;;;;;;2.79;73.03;101032.52;1704983;83;21057;-86
2022/12/15 14:59:44;;;;;;;34.58;24.50;;;;;;;2.79;73.48;101030.37;1699780;83;22320;-88
2022/12/15 15:02:25;;;;;;;38.65;24.85;;;;;;;2.80;74.02;101035.95;1709916;83;21541;-87
2022/12/15 15:07:55;;;;;;;36.13;22.67;;;;;;;2.75;74.04;101039.94;1694513;84;20948;-88
2022/12/15 15:10:26;;;;;;;31.48;21.48;;;;;;;2.70;73.80;101036.60;1696899;84;20964;-87
2022/12/15 15:12:53;;;;;;;39.83;23.22;;;;;;;2.67;73.78;101035.38;1695985;83;21748;-86
2022/12/15 15:15:20;;;;;;;39.63;23.45;;;;;;;2.67;73.80;101032.79;1698640;84;21792;-87
2022/12/15 15:17:56;;;;;;;39.30;25.12;;;;;;;2.64;73.70;101032.38;1702242;84;20912;-86
2022/12/15 15:20:33;;;;;;;39.03;24.80;;;;;;;2.60;73.77;101025.59;1695193;83;20971;-86
2022/12/15 15:23:18;;;;;;;39.48;24.45;;;;;;;2.52;73.95;101022.30;1673854;84;20926;-86
2022/12/15 15:25:53;;;;;;;33.35;24.63;;;;;;;2.46;74.09;101028.88;1673949;83;21368;-87
2022/12/15 15:28:28;;;;;;;39.55;23.65;;;;;;;2.38;74.49;101031.64;1674496;83;21026;-86
2022/12/15 15:31:04;;;;;;;36.25;22.95;;;;;;;2.32;74.86;101023.14;1648919;84;20954;-86
2022/12/15 15:33:27;;;;;;;34.88;23.95;;;;;;;2.26;75.33;101020.21;1643595;85;20992;-87
2022/12/15 15:35:57;;;;;;;34.38;23.50;;;;;;;2.23;75.78;101024.16;1665842;85;21053;-86
2022/12/15 15:38:29;;;;;;;47.08;26.82;;;;;;;2.22;76.08;101019.85;1689796;83;21153;-85
2022/12/15 15:40:58;;;;;;;38.65;25.27;;;;;;;2.25;76.47;101027.13;1695867;84;20936;-86
2022/12/15 15:43:26;;;;;;;41.00;25.80;;;;;;;2.27;76.45;101023.23;1696566;84;20983;-85
2022/12/15 15:46:05;;;;;;;53.92;29.30;;;;;;;2.27;76.71;101024.52;1696815;84;20964;-87
2022/12/15 15:48:34;;;;;;;66.82;32.08;;;;;;;2.26;76.80;101027.98;1694411;84;20965;-86
2022/12/15 15:51:01;;;;;;;61.83;33.15;;;;;;;2.25;76.86;101036.64;1696918;83;21269;-85
2022/12/15 15:53:29;;;;;;;65.40;32.13;;;;;;;2.18;77.19;101028.13;1695291;83;21002;-88
2022/12/15 15:55:56;;;;;;;72.65;31.87;;;;;;;2.21;77.84;101031.95;1698958;83;20944;-87
2022/12/15 15:58:23;;;;;;;77.32;36.60;;;;;;;2.24;78.10;101029.28;1697047;83;20905;-87
2022/12/15 16:00:49;;;;;;;62.75;31.97;;;;;;;2.28;78.18;101031.39;1698781;84;20940;-86
2022/12/15 20:45:29;;;;;;;27.95;17.20;;;;;;;3.34;83.51;101027.85;1721163;81;20913;-85
2022/12/15 20:47:58;;;;;;;22.37;15.95;;;;;;;3.32;83.26;101032.22;1739513;81;20935;-86
2022/12/15 20:50:36;;;;;;;25.65;16.87;;;;;;;3.29;82.95;101025.80;1737600;81;21495;-86
2022/12/15 20:53:04;;;;;;;23.05;16.45;;;;;;;3.27;82.56;101021.11;1727342;81;20945;-86
2022/12/15 20:55:31;;;;;;;23.83;17.42;;;;;;;3.21;82.27;101010.43;1698843;82;21073;-86
2022/12/15 20:57:58;;;;;;;23.55;15.48;;;;;;;3.10;82.40;100991.69;1741210;81;20927;-85
2022/12/15 21:00:25;;;;;;;29.87;19.57;;;;;;;3.04;82.67;100984.05;1738442;81;20940;-87
2022/12/15 21:02:52;;;;;;;31.75;20.75;;;;;;;2.99;82.77;100985.91;1727044;81;21135;-88
2022/12/15 21:05:22;;;;;;;37.73;22.90;;;;;;;2.94;82.84;100999.42;1715470;82;20896;-85
2022/12/15 21:07:48;;;;;;;32.93;21.75;;;;;;;2.90;82.98;101020.19;1716373;83;20967;-86
2022/12/15 21:10:17;;;;;;;28.90;18.12;;;;;;;2.91;83.06;101027.50;1703121;80;21042;-88
2022/12/15 21:12:47;;;;;;;29.42;18.62;;;;;;;2.92;83.22;101030.52;1729586;81;21042;-83
2022/12/15 21:15:17;;;;;;;30.12;19.77;;;;;;;2.98;83.15;101026.93;1717222;82;21149;-86
2022/12/15 21:17:44;;;;;;;28.77;17.82;;;;;;;3.04;83.12;101009.52;1736219;82;20897;-86
2022/12/15 21:20:12;;;;;;;29.48;18.90;;;;;;;3.10;83.04;101011.97;1738587;81;21441;-87
2022/12/15 21:22:38;;;;;;;31.05;19.52;;;;;;;3.07;82.80;101000.84;1733321;81;20990;-87
2022/12/15 21:25:24;;;;;;;30.15;20.43;;;;;;;3.04;83.05;100998.30;1737422;81;20979;-88
2022/12/15 21:27:51;;;;;;;34.85;19.95;;;;;;;3.06;82.97;101004.30;1701112;81;21121;-86
2022/12/15 21:30:21;;;;;;;31.97;19.87;;;;;;;3.09;83.06;101016.76;1730775;81;20924;-87
2022/12/15 21:32:49;;;;;;;31.12;20.40;;;;;;;3.13;82.91;101027.05;1739904;81;21137;-86
2022/12/15 21:35:17;;;;;;;29.07;19.17;;;;;;;3.16;82.71;101041.21;1723653;81;21084;-85
2022/12/15 21:37:46;;;;;;;27.62;19.42;;;;;;;3.18;82.60;101031.25;1738180;81;20959;-87
2022/12/15 21:40:19;;;;;;;29.23;18.40;;;;;;;3.21;82.30;101021.25;1735400;81;21236;-85
2022/12/15 21:42:47;;;;;;;34.27;19.98;;;;;;;3.19;81.97;101016.55;1749509;81;20923;-85
2022/12/15 21:45:16;;;;;;;32.85;20.37;;;;;;;3.14;82.04;101015.80;1749709;81;20868;-87
2022/12/15 21:50:28;;;;;;;38.15;21.50;;;;;;;3.16;82.82;101029.55;1727213;81;20916;-88
2022/12/15 21:52:56;;;;;;;41.55;22.93;;;;;;;3.18;82.46;101036.85;1735085;81;21301;-85
2022/12/15 21:55:25;;;;;;;39.53;23.25;;;;;;;3.16;82.25;101043.80;1714046;81;21047;-85
2022/12/15 21:57:53;;;;;;;36.42;21.52;;;;;;;3.13;82.29;101044.73;1733986;81;20924;-88
2022/12/15 22:00:22;;;;;;;34.23;22.13;;;;;;;3.13;82.21;101056.84;1721410;82;20930;-87
2022/12/15 22:02:50;;;;;;;39.70;23.00;;;;;;;3.10;82.13;101056.47;1735916;82;20896;-84
2022/12/15 22:05:24;;;;;;;40.60;23.30;;;;;;;3.10;82.24;101059.91;1736018;82;21129;-86
2022/12/15 22:07:50;;;;;;;31.12;19.90;;;;;;;3.16;82.38;101056.77;1733375;81;21528;-86
2022/12/15 22:10:18;;;;;;;31.42;20.10;;;;;;;3.21;82.13;101064.86;1742825;81;21092;-85
2022/12/15 22:12:48;;;;;;;28.95;20.08;;;;;;;3.24;82.05;101058.30;1737742;81;20976;-88
2022/12/15 22:15:17;;;;;;;31.90;20.08;;;;;;;3.27;82.23;101065.17;1723429;81;20865;-87
2022/12/15 22:17:45;;;;;;;29.65;21.00;;;;;;;3.29;82.29;101056.89;1737705;81;21177;-88
2022/12/15 22:20:16;;;;;;;29.12;20.92;;;;;;;3.35;82.24;101061.09;1711356;81;21481;-87
2022/12/15 22:22:44;;;;;;;29.60;20.08;;;;;;;3.41;82.23;101066.16;1710879;82;21113;-86
2022/12/15 22:25:18;;;;;;;28.42;19.77;;;;;;;3.49;82.11;101070.27;1740730;81;21471;-88
2022/12/15 22:27:44;;;;;;;30.70;19.80;;;;;;;3.56;81.74;101061.91;1729248;81;21436;-87
2022/12/15 22:30:20;;;;;;;29.75;19.60;;;;;;;3.53;81.19;101054.17;1739145;81;21228;-88
2022/12/15 22:32:47;;;;;;;29.30;19.52;;;;;;;3.44;80.96;101047.92;1717071;81;21611;-88
2022/12/15 22:35:18;;;;;;;25.92;18.60;;;;;;;3.37;80.89;101048.95;1737016;81;21484;-89
2022/12/15 22:37:46;;;;;;;26.62;19.07;;;;;;;3.30;80.97;101058.62;1727183;81;21038;-89
2022/12/15 22:40:13;;;;;;;27.10;18.87;;;;;;;3.28;81.22;101068.16;1721516;81;20951;-89
2022/12/15 22:42:43;;;;;;;26.40;17.55;;;;;;;3.26;81.44;101073.38;1726676;81;21243;-88
2022/12/15 22:45:19;;;;;;;32.73;21.00;;;;;;;3.29;81.76;101081.52;1744772;81;20994;-89
2022/12/15 22:47:48;;;;;;;32.15;20.90;;;;;;;3.38;82.07;101089.11;1737719;81;21567;-88
2022/12/15 22:50:19;;;;;;;34.63;23.20;;;;;;;3.45;81.77;101089.38;1735827;81;21060;-88
2022/12/15 22:52:47;;;;;;;37.55;26.62;;;;;;;3.46;81.69;101101.89;1731010;81;20872;-87
2022/12/15 22:55:15;;;;;;;42.88;28.87;;;;;;;3.49;81.90;101096.20;1739000;81;21215;-88
2022/12/15 22:57:59;;;;;;;41.75;27.55;;;;;;;3.52;81.69;101101.75;1743511;81;20903;-88
2022/12/15 23:00:28;;;;;;;36.77;27.00;;;;;;;3.55;81.28;101113.34;1705341;81;20944;-88
2022/12/15 23:02:54;;;;;;;33.90;21.95;;;;;;;3.56;81.28;101119.38;1708910;81;20948;-88
2022/12/15 23:05:21;;;;;;;31.37;20.77;;;;;;;3.57;81.32;101128.42;1708059;81;20896;-88
2022/12/15 23:07:49;;;;;;;28.52;20.88;;;;;;;3.54;81.43;101123.31;1733437;81;22181;-87
2022/12/15 23:13:02;;;;;;;29.42;19.95;;;;;;;3.52;81.39;101138.90;1738813;81;21941;-87
2022/12/15 23:18:15;;;;;;;27.50;18.73;;;;;;;3.41;80.98;101148.66;1743514;81;20971;-88
2022/12/15 23:20:41;;;;;;;26.62;18.57;;;;;;;3.34;80.88;101163.09;1714796;81;21952;-84
2022/12/15 23:23:11;;;;;;;25.68;17.60;;;;;;;3.28;81.03;101164.06;1709411;82;20940;-88
2022/12/15 23:25:38;;;;;;;26.23;18.42;;;;;;;3.24;81.31;101165.85;1731183;82;20999;-88
2022/12/15 23:28:05;;;;;;;28.27;19.42;;;;;;;3.25;81.51;101158.50;1733651;82;20960;-87
2022/12/15 23:30:32;;;;;;;27.15;18.55;;;;;;;3.23;81.23;101167.20;1733712;82;20955;-88
2022/12/15 23:32:59;;;;;;;31.20;19.42;;;;;;;3.17;81.36;101177.23;1730901;82;21146;-87
2022/12/15 23:35:25;;;;;;;29.52;19.40;;;;;;;3.18;81.97;101195.81;1729058;82;20932;-88
2022/12/15 23:37:52;;;;;;;30.08;20.60;;;;;;;3.24;82.10;101196.95;1725314;81;20920;-87
2022/12/15 23:40:20;;;;;;;29.10;20.15;;;;;;;3.28;82.05;101200.34;1728087;82;21434;-88